createdAt,value
2022-10-17T00:00:09.336Z,24.53
2022-10-17T00:00:40.915Z,24.51
2022-10-17T00:01:12.482Z,24.53
2022-10-17T00:01:44.225Z,24.51
2022-10-17T00:02:15.844Z,24.51
2022-10-17T00:02:47.364Z,24.50
2022-10-17T00:03:19.002Z,24.51
2022-10-17T00:03:50.680Z,24.50
2022-10-17T00:04:22.294Z,24.48
2022-10-17T00:04:53.904Z,24.48
2022-10-17T00:05:25.448Z,24.51
2022-10-17T00:06:47.843Z,24.47
2022-10-17T00:07:47.767Z,24.47
2022-10-17T00:08:42.658Z,24.48
2022-10-17T00:09:40.806Z,24.46
2022-10-17T00:10:33.637Z,24.46
2022-10-17T00:11:33.916Z,24.47
2022-10-17T00:12:26.001Z,24.49
2022-10-17T00:13:20.594Z,24.47
2022-10-17T00:14:18.001Z,24.41
2022-10-17T00:15:15.110Z,24.44
2022-10-17T00:16:13.206Z,24.44
2022-10-17T00:17:05.353Z,24.44
2022-10-17T00:17:56.621Z,24.43
2022-10-17T00:18:47.336Z,24.43
2022-10-17T00:19:37.434Z,24.40
2022-10-17T00:20:28.087Z,24.42
2022-10-17T00:22:25.656Z,24.40
2022-10-17T00:23:17.339Z,24.39
2022-10-17T00:24:11.253Z,24.41
2022-10-17T00:25:08.531Z,24.42
2022-10-17T00:26:09.780Z,24.40
2022-10-17T00:27:04.400Z,24.39
2022-10-17T00:27:58.769Z,24.37
2022-10-17T00:28:53.941Z,24.40
2022-10-17T00:29:48.543Z,24.39
2022-10-17T00:30:41.447Z,24.41
2022-10-17T00:31:40.178Z,24.41
2022-10-17T00:32:34.072Z,24.38
2022-10-17T00:33:29.553Z,24.38
2022-10-17T00:34:27.880Z,24.37
2022-10-17T00:35:23.278Z,24.37
2022-10-17T00:36:19.536Z,24.36
2022-10-17T00:37:20.608Z,24.37
2022-10-17T00:38:14.822Z,24.36
2022-10-17T00:39:06.881Z,24.31
2022-10-17T00:39:59.476Z,24.33
2022-10-17T00:40:52.732Z,24.30
2022-10-17T00:41:53.582Z,24.32
2022-10-17T00:42:49.497Z,24.29
2022-10-17T00:43:43.301Z,24.33
2022-10-17T00:44:33.487Z,24.34
2022-10-17T00:45:31.995Z,24.34
2022-10-17T00:46:24.481Z,24.33
2022-10-17T00:47:19.912Z,24.32
2022-10-17T00:48:13.357Z,24.33
2022-10-17T00:49:04.176Z,24.36
2022-10-17T00:49:55.577Z,24.31
2022-10-17T00:50:46.380Z,24.30
2022-10-17T00:51:41.432Z,24.31
2022-10-17T00:52:36.604Z,24.33
2022-10-17T00:53:33.086Z,24.31
2022-10-17T00:54:26.877Z,24.30
2022-10-17T00:55:31.077Z,24.31
2022-10-17T00:56:26.416Z,24.30
2022-10-17T00:57:25.976Z,24.29
2022-10-17T00:58:18.104Z,24.30
2022-10-17T00:59:10.578Z,24.29
2022-10-17T01:00:01.888Z,24.28
2022-10-17T01:00:57.368Z,24.30
2022-10-17T01:01:52.580Z,24.30
2022-10-17T01:02:56.099Z,24.28
2022-10-17T01:03:48.564Z,24.30
2022-10-17T01:04:41.257Z,24.30
2022-10-17T01:05:33.730Z,24.30
2022-10-17T01:06:23.743Z,24.29
2022-10-17T01:07:15.629Z,24.25
2022-10-17T01:08:06.975Z,24.29
2022-10-17T01:08:52.932Z,24.27
2022-10-17T01:09:38.600Z,24.25
2022-10-17T01:10:26.619Z,24.25
2022-10-17T01:11:33.807Z,24.27
2022-10-17T01:12:27.495Z,24.25
2022-10-17T01:13:15.624Z,24.27
2022-10-17T01:14:02.464Z,24.27
2022-10-17T01:15:07.038Z,24.27
2022-10-17T01:16:12.214Z,24.27
2022-10-17T01:17:07.485Z,24.26
2022-10-17T01:18:10.908Z,24.23
2022-10-17T01:18:53.852Z,24.27
2022-10-17T01:19:51.062Z,24.23
2022-10-17T01:20:40.379Z,24.27
2022-10-17T01:21:25.890Z,24.25
2022-10-17T01:22:33.072Z,24.27
2022-10-17T01:23:33.557Z,24.27
2022-10-17T01:24:17.782Z,24.25
2022-10-17T01:25:12.416Z,24.23
2022-10-17T01:26:12.595Z,24.26
2022-10-17T01:27:11.377Z,24.24
2022-10-17T01:28:11.638Z,24.24
2022-10-17T01:29:11.627Z,24.23
2022-10-17T01:30:17.258Z,24.21
2022-10-17T01:31:16.011Z,24.23
2022-10-17T01:32:10.030Z,24.20
2022-10-17T01:33:01.086Z,24.18
2022-10-17T01:33:44.538Z,24.19
2022-10-17T01:34:42.948Z,24.20
2022-10-17T01:35:30.904Z,24.21
2022-10-17T01:36:18.740Z,24.20
2022-10-17T01:37:10.006Z,24.19
2022-10-17T01:37:58.583Z,24.21
2022-10-17T01:38:47.395Z,24.18
2022-10-17T01:39:50.175Z,24.20
2022-10-17T01:40:37.640Z,24.22
2022-10-17T01:41:35.573Z,24.21
2022-10-17T01:42:29.247Z,24.21
2022-10-17T01:43:38.080Z,24.23
2022-10-17T01:44:34.033Z,24.22
2022-10-17T01:45:29.121Z,24.22
2022-10-17T01:46:22.155Z,24.23
2022-10-17T01:47:12.202Z,24.22
2022-10-17T01:48:02.391Z,24.23
2022-10-17T01:48:56.257Z,24.23
2022-10-17T01:49:47.158Z,24.19
2022-10-17T01:50:43.575Z,24.20
2022-10-17T01:51:33.980Z,24.22
2022-10-17T01:52:24.177Z,24.22
2022-10-17T01:53:16.748Z,24.23
2022-10-17T01:54:07.103Z,24.22
2022-10-17T01:55:16.913Z,24.20
2022-10-17T01:56:14.922Z,24.20
2022-10-17T01:57:06.570Z,24.21
2022-10-17T01:57:58.321Z,24.20
2022-10-17T01:59:04.448Z,24.21
2022-10-17T01:59:52.893Z,24.19
2022-10-17T02:00:42.513Z,24.18
2022-10-17T02:01:33.865Z,24.17
2022-10-17T02:03:24.173Z,24.16
2022-10-17T02:04:13.588Z,24.16
2022-10-17T02:05:55.641Z,24.18
2022-10-17T02:06:46.771Z,24.18
2022-10-17T02:07:35.858Z,24.18
2022-10-17T02:08:24.964Z,24.15
2022-10-17T02:09:25.782Z,24.20
2022-10-17T02:10:21.220Z,24.10
2022-10-17T02:11:10.414Z,24.15
2022-10-17T02:12:07.015Z,24.18
2022-10-17T02:13:01.296Z,24.17
2022-10-17T02:14:03.799Z,24.08
2022-10-17T02:15:13.610Z,24.10
2022-10-17T02:16:09.601Z,24.14
2022-10-17T02:17:00.200Z,24.11
2022-10-17T02:18:01.589Z,24.12
2022-10-17T02:19:00.315Z,24.12
2022-10-17T02:20:02.342Z,24.12
2022-10-17T02:20:51.001Z,24.11
2022-10-17T02:21:57.405Z,24.07
2022-10-17T02:22:54.063Z,24.05
2022-10-17T02:24:07.277Z,24.10
2022-10-17T02:25:02.725Z,24.14
2022-10-17T02:25:50.885Z,24.07
2022-10-17T02:26:50.417Z,24.11
2022-10-17T02:27:33.067Z,24.14
2022-10-17T02:28:33.671Z,24.13
2022-10-17T02:29:28.356Z,24.12
2022-10-17T02:30:11.047Z,24.13
2022-10-17T02:31:18.084Z,24.12
2022-10-17T02:32:10.948Z,24.11
2022-10-17T02:33:08.713Z,24.11
2022-10-17T02:34:05.637Z,24.12
2022-10-17T02:34:52.854Z,24.13
2022-10-17T02:35:40.556Z,24.12
2022-10-17T02:36:31.971Z,24.12
2022-10-17T02:38:22.415Z,24.12
2022-10-17T02:39:14.372Z,24.12
2022-10-17T02:40:06.446Z,24.12
2022-10-17T02:40:58.962Z,24.12
2022-10-17T02:41:49.608Z,24.12
2022-10-17T02:43:46.516Z,24.08
2022-10-17T02:44:39.356Z,24.10
2022-10-17T02:45:32.172Z,24.11
2022-10-17T02:46:24.126Z,24.07
2022-10-17T02:47:16.491Z,24.10
2022-10-17T02:48:20.601Z,24.11
2022-10-17T02:49:08.749Z,24.11
2022-10-17T02:50:00.293Z,24.10
2022-10-17T02:50:42.164Z,24.09
2022-10-17T02:51:34.463Z,24.08
2022-10-17T02:52:23.535Z,24.09
2022-10-17T02:53:12.724Z,24.09
2022-10-17T02:54:11.111Z,24.09
2022-10-17T02:55:10.747Z,24.12
2022-10-17T02:56:01.424Z,24.13
2022-10-17T02:56:57.559Z,24.13
2022-10-17T02:57:51.855Z,24.13
2022-10-17T02:58:41.883Z,24.15
2022-10-17T03:00:24.966Z,24.11
2022-10-17T03:01:18.077Z,24.10
2022-10-17T03:02:10.966Z,24.07
2022-10-17T03:04:02.397Z,24.09
2022-10-17T03:05:45.684Z,24.06
2022-10-17T03:06:37.379Z,24.08
2022-10-17T03:07:31.757Z,24.09
2022-10-17T03:08:27.412Z,24.08
2022-10-17T03:09:18.167Z,24.08
2022-10-17T03:10:09.573Z,24.09
2022-10-17T03:11:03.455Z,24.08
2022-10-17T03:11:56.881Z,24.05
2022-10-17T03:12:52.448Z,24.06
2022-10-17T03:14:47.707Z,24.11
2022-10-17T03:15:39.402Z,24.08
2022-10-17T03:16:29.817Z,24.08
2022-10-17T03:17:19.604Z,24.07
2022-10-17T03:18:14.968Z,24.08
2022-10-17T03:19:10.399Z,24.01
2022-10-17T03:20:00.493Z,24.04
2022-10-17T03:20:51.408Z,24.09
2022-10-17T03:21:39.501Z,24.07
2022-10-17T03:22:28.380Z,24.08
2022-10-17T03:23:16.933Z,24.08
2022-10-17T03:24:08.697Z,24.07
2022-10-17T03:25:03.707Z,24.07
2022-10-17T03:25:54.822Z,24.09
2022-10-17T03:27:38.949Z,24.06
2022-10-17T03:28:37.912Z,24.07
2022-10-17T03:29:32.053Z,24.03
2022-10-17T03:30:25.158Z,24.05
2022-10-17T03:31:23.638Z,24.01
2022-10-17T03:32:12.067Z,24.03
2022-10-17T03:33:07.290Z,24.03
2022-10-17T03:33:58.581Z,23.98
2022-10-17T03:34:48.613Z,24.03
2022-10-17T03:35:39.788Z,24.05
2022-10-17T03:36:29.769Z,24.04
2022-10-17T03:37:19.875Z,24.01
2022-10-17T03:38:18.857Z,24.02
2022-10-17T03:39:09.421Z,24.05
2022-10-17T03:39:59.996Z,24.06
2022-10-17T03:40:50.688Z,24.06
2022-10-17T03:41:38.113Z,24.00
2022-10-17T03:42:28.141Z,24.01
2022-10-17T03:43:25.323Z,24.01
2022-10-17T03:44:14.677Z,24.06
2022-10-17T03:45:05.202Z,24.05
2022-10-17T03:45:55.853Z,24.07
2022-10-17T03:46:46.756Z,24.05
2022-10-17T03:47:38.865Z,24.04
2022-10-17T03:48:40.301Z,24.05
2022-10-17T03:49:34.775Z,24.06
2022-10-17T03:50:28.294Z,24.05
2022-10-17T03:51:22.580Z,24.06
2022-10-17T03:52:15.913Z,24.01
2022-10-17T03:53:08.422Z,23.97
2022-10-17T03:54:05.590Z,23.92
2022-10-17T03:54:55.090Z,23.96
2022-10-17T03:55:46.384Z,24.02
2022-10-17T03:56:36.523Z,24.04
2022-10-17T03:57:26.242Z,24.01
2022-10-17T03:58:20.502Z,23.99
2022-10-17T03:59:15.917Z,23.96
2022-10-17T04:00:06.464Z,23.99
2022-10-17T04:00:55.604Z,24.00
2022-10-17T04:01:44.050Z,24.04
2022-10-17T04:02:32.908Z,23.92
2022-10-17T04:03:23.135Z,23.99
2022-10-17T04:04:11.302Z,24.00
2022-10-17T04:05:05.096Z,24.06
2022-10-17T04:05:55.565Z,24.07
2022-10-17T04:06:49.230Z,24.03
2022-10-17T04:07:40.579Z,24.00
2022-10-17T04:08:37.719Z,24.03
2022-10-17T04:09:33.123Z,24.00
2022-10-17T04:10:30.023Z,24.05
2022-10-17T04:11:22.622Z,24.06
2022-10-17T04:12:14.073Z,24.07
2022-10-17T04:13:03.514Z,24.05
2022-10-17T04:13:53.056Z,24.04
2022-10-17T04:14:45.893Z,24.02
2022-10-17T04:15:42.043Z,24.05
2022-10-17T04:16:32.570Z,24.01
2022-10-17T04:17:22.524Z,24.00
2022-10-17T04:18:13.126Z,24.03
2022-10-17T04:19:08.998Z,24.04
2022-10-17T04:20:34.799Z,23.92
2022-10-17T04:21:25.692Z,23.98
2022-10-17T04:22:16.923Z,24.00
2022-10-17T04:23:09.667Z,23.99
2022-10-17T04:24:05.930Z,23.99
2022-10-17T04:24:57.675Z,23.98
2022-10-17T04:25:49.453Z,24.01
2022-10-17T04:26:41.008Z,24.03
2022-10-17T04:27:31.837Z,24.03
2022-10-17T04:28:22.879Z,24.02
2022-10-17T04:29:16.829Z,24.03
2022-10-17T04:30:07.497Z,24.03
2022-10-17T04:30:59.285Z,23.97
2022-10-17T04:31:50.961Z,23.99
2022-10-17T04:32:43.433Z,23.98
2022-10-17T04:33:35.914Z,24.01
2022-10-17T04:35:31.270Z,23.94
2022-10-17T04:36:21.019Z,23.98
2022-10-17T04:37:13.856Z,23.97
2022-10-17T04:38:07.132Z,24.00
2022-10-17T04:39:04.146Z,23.97
2022-10-17T04:40:33.102Z,23.97
2022-10-17T04:41:25.529Z,23.95
2022-10-17T04:42:18.423Z,23.91
2022-10-17T04:43:10.330Z,23.95
2022-10-17T04:44:01.659Z,23.98
2022-10-17T04:44:49.745Z,23.96
2022-10-17T04:45:36.991Z,23.98
2022-10-17T04:46:25.078Z,23.97
2022-10-17T04:47:14.218Z,23.91
2022-10-17T04:48:03.282Z,23.96
2022-10-17T04:49:01.011Z,23.98
2022-10-17T04:49:51.111Z,24.01
2022-10-17T04:50:42.245Z,24.03
2022-10-17T04:51:32.989Z,24.01
2022-10-17T04:52:23.560Z,24.02
2022-10-17T04:53:14.534Z,24.04
2022-10-17T04:54:12.378Z,24.02
2022-10-17T04:55:03.145Z,24.04
2022-10-17T04:55:51.745Z,24.00
2022-10-17T04:56:41.967Z,23.97
2022-10-17T04:57:33.264Z,23.94
2022-10-17T04:58:24.529Z,23.98
2022-10-17T04:59:23.465Z,24.00
2022-10-17T05:00:15.059Z,24.00
2022-10-17T05:01:05.753Z,24.00
2022-10-17T05:01:59.614Z,24.01
2022-10-17T05:02:56.154Z,24.01
2022-10-17T05:03:49.530Z,23.91
2022-10-17T05:05:42.447Z,23.94
2022-10-17T05:06:32.837Z,23.93
2022-10-17T05:07:24.800Z,23.97
2022-10-17T05:08:16.960Z,23.97
2022-10-17T05:09:12.441Z,24.00
2022-10-17T05:10:04.287Z,24.04
2022-10-17T05:10:51.653Z,24.02
2022-10-17T05:11:39.442Z,24.00
2022-10-17T05:12:27.467Z,24.00
2022-10-17T05:13:14.572Z,24.01
2022-10-17T05:14:07.619Z,23.98
2022-10-17T05:14:56.078Z,23.99
2022-10-17T05:15:44.617Z,24.01
2022-10-17T05:16:32.468Z,24.02
2022-10-17T05:17:20.688Z,24.03
2022-10-17T05:18:08.485Z,24.01
2022-10-17T05:19:04.916Z,24.05
2022-10-17T05:19:55.578Z,24.03
2022-10-17T05:20:47.723Z,24.03
2022-10-17T05:21:39.299Z,24.03
2022-10-17T05:22:30.403Z,23.93
2022-10-17T05:23:21.280Z,23.93
2022-10-17T05:25:15.546Z,23.99
2022-10-17T05:26:12.934Z,24.00
2022-10-17T05:27:06.467Z,24.00
2022-10-17T05:27:56.677Z,23.98
2022-10-17T05:28:54.337Z,24.00
2022-10-17T05:29:51.360Z,24.01
2022-10-17T05:30:41.648Z,23.95
2022-10-17T05:31:31.244Z,23.94
2022-10-17T05:32:22.681Z,23.98
2022-10-17T05:33:12.920Z,23.93
2022-10-17T05:34:04.304Z,23.94
2022-10-17T05:35:02.535Z,23.98
2022-10-17T05:35:52.908Z,23.94
2022-10-17T05:36:43.450Z,23.91
2022-10-17T05:37:35.247Z,23.94
2022-10-17T05:38:25.506Z,23.96
2022-10-17T05:39:14.906Z,23.97
2022-10-17T05:40:10.163Z,24.00
2022-10-17T05:40:59.090Z,24.03
2022-10-17T05:41:47.113Z,24.00
2022-10-17T05:42:35.668Z,24.03
2022-10-17T05:43:23.059Z,24.02
2022-10-17T05:44:10.307Z,24.01
2022-10-17T05:44:57.669Z,24.01
2022-10-17T05:45:52.407Z,24.01
2022-10-17T05:46:43.734Z,24.01
2022-10-17T05:47:34.707Z,24.05
2022-10-17T05:48:25.716Z,24.07
2022-10-17T05:49:43.582Z,24.07
2022-10-17T05:50:30.259Z,24.04
2022-10-17T05:51:22.010Z,24.07
2022-10-17T05:52:14.578Z,24.04
2022-10-17T05:53:10.043Z,24.04
2022-10-17T05:54:08.454Z,24.03
2022-10-17T05:55:00.415Z,24.03
2022-10-17T05:55:53.213Z,24.06
2022-10-17T05:56:44.045Z,24.03
2022-10-17T05:57:35.176Z,24.06
2022-10-17T06:00:37.483Z,24.00
2022-10-17T06:01:27.741Z,23.96
2022-10-17T06:02:18.889Z,23.99
2022-10-17T06:03:10.258Z,24.03
2022-10-17T06:04:00.143Z,23.94
2022-10-17T06:04:53.879Z,24.00
2022-10-17T06:05:43.768Z,23.97
2022-10-17T06:06:34.010Z,24.03
2022-10-17T06:08:07.443Z,23.99
2022-10-17T06:08:58.986Z,23.99
2022-10-17T06:09:53.593Z,23.97
2022-10-17T06:10:43.288Z,23.99
2022-10-17T06:11:32.882Z,23.97
2022-10-17T06:12:22.545Z,23.97
2022-10-17T06:13:11.381Z,23.94
2022-10-17T06:14:01.602Z,24.00
2022-10-17T06:14:58.863Z,23.99
2022-10-17T06:15:50.485Z,23.94
2022-10-17T06:16:39.833Z,23.99
2022-10-17T06:17:29.990Z,24.01
2022-10-17T06:18:19.916Z,23.98
2022-10-17T06:19:09.626Z,23.97
2022-10-17T06:20:04.290Z,23.97
2022-10-17T06:20:52.984Z,24.01
2022-10-17T06:21:42.547Z,24.03
2022-10-17T06:22:32.201Z,24.01
2022-10-17T06:23:22.149Z,24.02
2022-10-17T06:24:12.198Z,24.04
2022-10-17T06:25:03.166Z,24.03
2022-10-17T06:25:59.012Z,24.01
2022-10-17T06:26:48.760Z,24.00
2022-10-17T06:27:37.961Z,24.00
2022-10-17T06:28:26.837Z,24.03
2022-10-17T06:29:13.595Z,24.01
2022-10-17T06:30:03.667Z,24.00
2022-10-17T06:30:50.695Z,24.02
2022-10-17T06:31:37.236Z,24.00
2022-10-17T06:32:24.516Z,24.01
2022-10-17T06:33:11.128Z,24.03
2022-10-17T06:33:57.912Z,24.03
2022-10-17T06:34:49.375Z,24.00
2022-10-17T06:35:36.611Z,24.01
2022-10-17T06:36:23.944Z,23.94
2022-10-17T06:37:10.843Z,24.00
2022-10-17T06:37:57.937Z,23.94
2022-10-17T06:38:43.490Z,24.02
2022-10-17T06:39:31.859Z,23.98
2022-10-17T06:40:24.228Z,24.00
2022-10-17T06:41:12.911Z,24.00
2022-10-17T06:42:00.625Z,24.00
2022-10-17T06:42:48.661Z,24.00
2022-10-17T06:43:36.370Z,23.98
2022-10-17T06:44:23.352Z,23.94
2022-10-17T06:45:15.485Z,23.98
2022-10-17T06:46:05.372Z,23.97
2022-10-17T06:46:52.648Z,24.00
2022-10-17T06:47:38.500Z,24.03
2022-10-17T06:48:24.514Z,23.98
2022-10-17T06:49:11.126Z,24.02
2022-10-17T06:49:56.848Z,23.99
2022-10-17T06:50:44.169Z,23.99
2022-10-17T06:51:33.433Z,23.98
2022-10-17T06:52:18.484Z,23.92
2022-10-17T06:53:04.498Z,24.00
2022-10-17T06:53:51.711Z,23.98
2022-10-17T06:54:37.692Z,24.00
2022-10-17T06:55:27.022Z,23.96
2022-10-17T06:56:15.735Z,23.94
2022-10-17T06:57:02.776Z,23.98
2022-10-17T06:57:51.534Z,23.96
2022-10-17T06:58:39.931Z,23.98
2022-10-17T06:59:27.676Z,23.99
2022-10-17T07:00:18.517Z,24.02
2022-10-17T07:01:58.280Z,24.01
2022-10-17T07:02:46.078Z,23.99
2022-10-17T07:03:33.655Z,24.00
2022-10-17T07:04:21.302Z,23.99
2022-10-17T07:05:11.339Z,23.97
2022-10-17T07:06:04.811Z,23.94
2022-10-17T07:06:52.555Z,23.97
2022-10-17T07:07:51.096Z,23.97
2022-10-17T07:08:38.637Z,23.97
2022-10-17T07:09:25.841Z,23.99
2022-10-17T07:10:15.562Z,24.01
2022-10-17T07:11:03.988Z,23.98
2022-10-17T07:11:52.073Z,23.98
2022-10-17T07:12:39.209Z,23.97
2022-10-17T07:13:25.914Z,23.99
2022-10-17T07:14:13.544Z,24.01
2022-10-17T07:15:00.361Z,24.03
2022-10-17T07:15:50.904Z,24.00
2022-10-17T07:16:37.627Z,24.01
2022-10-17T07:17:24.610Z,24.02
2022-10-17T07:18:11.298Z,23.97
2022-10-17T07:18:58.181Z,23.97
2022-10-17T07:19:45.833Z,24.02
2022-10-17T07:20:32.386Z,24.01
2022-10-17T07:21:23.477Z,24.01
2022-10-17T07:22:10.349Z,23.98
2022-10-17T07:22:57.172Z,23.98
2022-10-17T07:23:45.262Z,23.99
2022-10-17T07:24:33.772Z,24.00
2022-10-17T07:25:25.342Z,23.98
2022-10-17T07:26:14.212Z,24.01
2022-10-17T07:27:05.989Z,24.00
2022-10-17T07:27:54.506Z,24.02
2022-10-17T07:28:43.310Z,24.00
2022-10-17T07:29:31.077Z,24.04
2022-10-17T07:30:19.018Z,24.01
2022-10-17T07:31:05.989Z,23.99
2022-10-17T07:31:53.546Z,23.99
2022-10-17T07:32:46.822Z,23.98
2022-10-17T07:33:35.312Z,23.94
2022-10-17T07:34:23.320Z,23.97
2022-10-17T07:35:09.724Z,23.98
2022-10-17T07:35:58.473Z,23.98
2022-10-17T07:36:45.031Z,23.99
2022-10-17T07:37:32.189Z,24.00
2022-10-17T07:38:22.426Z,23.99
2022-10-17T07:39:09.494Z,23.93
2022-10-17T07:39:55.915Z,23.97
2022-10-17T07:40:42.686Z,24.00
2022-10-17T07:41:29.153Z,23.99
2022-10-17T07:42:16.416Z,23.97
2022-10-17T07:43:01.393Z,23.97
2022-10-17T07:43:54.203Z,23.98
2022-10-17T07:44:40.978Z,23.96
2022-10-17T07:45:26.110Z,23.91
2022-10-17T07:46:14.077Z,23.94
2022-10-17T07:47:00.513Z,23.98
2022-10-17T07:47:48.630Z,24.00
2022-10-17T07:48:35.639Z,24.02
2022-10-17T07:49:26.987Z,24.00
2022-10-17T07:50:13.919Z,23.94
2022-10-17T07:51:03.467Z,23.95
2022-10-17T07:51:50.452Z,23.99
2022-10-17T07:52:36.750Z,23.97
2022-10-17T07:53:23.672Z,23.99
2022-10-17T07:54:10.562Z,24.00
2022-10-17T07:54:57.273Z,23.97
2022-10-17T07:55:51.034Z,23.99
2022-10-17T07:56:38.028Z,23.99
2022-10-17T07:57:25.040Z,23.99
2022-10-17T07:58:11.840Z,23.96
2022-10-17T07:59:47.505Z,23.99
2022-10-17T08:00:34.707Z,24.02
2022-10-17T08:01:25.002Z,24.03
2022-10-17T08:02:12.300Z,23.98
2022-10-17T08:02:59.880Z,23.92
2022-10-17T08:03:47.457Z,23.97
2022-10-17T08:04:35.384Z,24.03
2022-10-17T08:05:24.086Z,24.00
2022-10-17T08:06:16.425Z,23.99
2022-10-17T08:07:21.861Z,23.99
2022-10-17T08:08:10.031Z,24.00
2022-10-17T08:08:57.079Z,24.01
2022-10-17T08:09:44.017Z,23.99
2022-10-17T08:10:31.458Z,24.00
2022-10-17T08:11:18.840Z,24.04
2022-10-17T08:12:12.162Z,24.04
2022-10-17T08:13:03.722Z,24.02
2022-10-17T08:13:54.948Z,23.91
2022-10-17T08:14:45.262Z,23.91
2022-10-17T08:15:34.840Z,23.92
2022-10-17T08:16:25.885Z,23.96
2022-10-17T08:17:22.575Z,23.96
2022-10-17T08:18:12.037Z,23.98
2022-10-17T08:19:01.609Z,23.99
2022-10-17T08:19:50.048Z,24.04
2022-10-17T08:20:37.624Z,24.04
2022-10-17T08:21:24.343Z,24.04
2022-10-17T08:22:11.828Z,24.03
2022-10-17T08:23:05.533Z,24.04
2022-10-17T08:23:52.156Z,24.05
2022-10-17T08:24:39.118Z,24.01
2022-10-17T08:25:27.192Z,24.03
2022-10-17T08:26:15.411Z,24.00
2022-10-17T08:27:06.897Z,24.01
2022-10-17T08:27:55.993Z,24.04
2022-10-17T08:28:48.699Z,24.01
2022-10-17T08:29:37.405Z,24.00
2022-10-17T08:30:26.815Z,24.01
2022-10-17T08:31:15.730Z,23.99
2022-10-17T08:32:06.505Z,24.01
2022-10-17T08:32:55.157Z,23.92
2022-10-17T08:33:42.770Z,23.94
2022-10-17T08:34:34.229Z,24.00
2022-10-17T08:35:21.576Z,23.96
2022-10-17T08:36:12.246Z,23.97
2022-10-17T08:37:00.765Z,24.00
2022-10-17T08:37:47.810Z,23.97
2022-10-17T08:38:35.543Z,23.94
2022-10-17T08:39:19.881Z,24.01
2022-10-17T08:40:10.679Z,23.98
2022-10-17T08:40:56.727Z,23.92
2022-10-17T08:41:52.886Z,23.98
2022-10-17T08:42:39.468Z,24.00
2022-10-17T08:43:36.335Z,24.00
2022-10-17T08:44:30.324Z,23.97
2022-10-17T08:45:27.764Z,24.03
2022-10-17T08:46:25.079Z,24.01
2022-10-17T08:47:14.678Z,23.96
2022-10-17T08:48:03.338Z,24.00
2022-10-17T08:48:52.233Z,24.00
2022-10-17T08:49:33.556Z,24.03
2022-10-17T08:50:34.349Z,24.03
2022-10-17T08:51:23.984Z,23.94
2022-10-17T08:52:23.005Z,23.99
2022-10-17T08:53:30.763Z,24.01
2022-10-17T08:54:22.688Z,23.97
2022-10-17T08:55:09.332Z,24.01
2022-10-17T08:55:59.797Z,24.04
2022-10-17T08:56:52.497Z,24.05
2022-10-17T08:57:39.216Z,24.06
2022-10-17T08:58:29.748Z,24.07
2022-10-17T08:59:23.356Z,24.07
2022-10-17T09:00:15.645Z,24.07
2022-10-17T09:01:13.028Z,24.08
2022-10-17T09:01:58.386Z,24.08
2022-10-17T09:02:52.567Z,24.09
2022-10-17T09:03:53.442Z,24.09
2022-10-17T09:04:34.465Z,24.10
2022-10-17T09:05:29.254Z,24.09
2022-10-17T09:06:28.240Z,24.10
2022-10-17T09:07:21.674Z,24.10
2022-10-17T09:08:10.897Z,24.11
2022-10-17T09:09:01.774Z,24.11
2022-10-17T09:10:07.221Z,24.13
2022-10-17T09:10:50.076Z,24.13
2022-10-17T09:11:44.185Z,24.13
2022-10-17T09:12:34.711Z,24.13
2022-10-17T09:14:45.581Z,24.14
2022-10-17T09:15:36.044Z,24.11
2022-10-17T09:16:19.143Z,24.13
2022-10-17T09:17:19.806Z,24.12
2022-10-17T09:18:01.747Z,24.06
2022-10-17T09:18:56.479Z,24.07
2022-10-17T09:19:53.130Z,24.08
2022-10-17T09:20:44.288Z,24.11
2022-10-17T09:21:44.150Z,24.08
2022-10-17T09:22:36.395Z,24.08
2022-10-17T09:23:17.033Z,24.07
2022-10-17T09:24:09.802Z,24.09
2022-10-17T09:24:58.326Z,24.10
2022-10-17T09:25:53.710Z,24.07
2022-10-17T09:26:43.407Z,24.09
2022-10-17T09:27:40.092Z,24.12
2022-10-17T09:28:35.889Z,24.08
2022-10-17T09:29:42.937Z,24.07
2022-10-17T09:30:44.570Z,24.07
2022-10-17T09:31:34.782Z,24.11
2022-10-17T09:32:26.276Z,24.06
2022-10-17T09:33:35.257Z,24.10
2022-10-17T09:34:28.893Z,24.11
2022-10-17T09:35:23.651Z,24.13
2022-10-17T09:36:18.607Z,24.09
2022-10-17T09:37:17.198Z,24.09
2022-10-17T09:38:09.244Z,24.04
2022-10-17T09:39:08.569Z,24.08
2022-10-17T09:39:58.865Z,24.11
2022-10-17T09:40:52.660Z,24.12
2022-10-17T09:41:46.026Z,24.09
2022-10-17T09:42:34.434Z,24.10
2022-10-17T09:43:23.335Z,24.13
2022-10-17T09:44:19.056Z,24.10
2022-10-17T09:45:07.641Z,24.10
2022-10-17T09:45:56.726Z,24.10
2022-10-17T09:46:43.835Z,24.09
2022-10-17T09:47:32.592Z,24.13
2022-10-17T09:48:28.656Z,24.13
2022-10-17T09:49:14.907Z,24.06
2022-10-17T09:50:11.625Z,24.14
2022-10-17T09:51:21.697Z,24.10
2022-10-17T09:52:16.895Z,24.17
2022-10-17T09:53:09.315Z,24.19
2022-10-17T09:53:57.696Z,24.19
2022-10-17T09:54:45.317Z,24.19
2022-10-17T09:55:41.765Z,24.18
2022-10-17T09:56:29.328Z,24.21
2022-10-17T09:57:16.441Z,24.22
2022-10-17T09:57:59.341Z,24.20
2022-10-17T09:58:50.364Z,24.22
2022-10-17T09:59:38.539Z,24.25
2022-10-17T10:00:31.881Z,24.26
2022-10-17T10:01:31.138Z,24.24
2022-10-17T10:02:18.641Z,24.27
2022-10-17T10:03:19.083Z,24.23
2022-10-17T10:04:21.511Z,24.25
2022-10-17T10:05:22.727Z,24.23
2022-10-17T10:06:13.297Z,24.27
2022-10-17T10:07:19.858Z,24.28
2022-10-17T10:08:16.442Z,24.27
2022-10-17T10:09:05.653Z,24.25
2022-10-17T10:09:55.031Z,24.24
2022-10-17T10:10:43.632Z,24.23
2022-10-17T10:11:35.188Z,24.25
2022-10-17T10:12:44.683Z,24.26
2022-10-17T10:13:33.962Z,24.29
2022-10-17T10:14:20.412Z,24.29
2022-10-17T10:14:55.734Z,24.31
2022-10-17T10:15:44.147Z,24.29
2022-10-17T10:16:37.189Z,24.28
2022-10-17T10:17:37.594Z,24.29
2022-10-17T10:19:28.611Z,24.28
2022-10-17T10:20:32.325Z,24.27
2022-10-17T10:21:29.363Z,24.23
2022-10-17T10:23:24.337Z,24.19
2022-10-17T10:24:08.934Z,24.23
2022-10-17T10:25:00.032Z,24.25
2022-10-17T10:25:52.179Z,24.27
2022-10-17T10:26:31.796Z,24.28
2022-10-17T10:27:21.533Z,24.29
2022-10-17T10:28:20.395Z,24.29
2022-10-17T10:29:11.009Z,24.27
2022-10-17T10:30:03.376Z,24.24
2022-10-17T10:30:52.630Z,24.27
2022-10-17T10:31:39.512Z,24.23
2022-10-17T10:32:27.769Z,24.19
2022-10-17T10:33:17.918Z,24.15
2022-10-17T10:34:08.225Z,24.15
2022-10-17T10:35:02.063Z,24.19
2022-10-17T10:35:52.850Z,24.22
2022-10-17T10:36:49.420Z,24.25
2022-10-17T10:37:40.214Z,24.26
2022-10-17T10:38:34.695Z,24.24
2022-10-17T10:39:24.788Z,24.22
2022-10-17T10:40:18.392Z,24.27
2022-10-17T10:41:06.975Z,24.27
2022-10-17T10:42:00.305Z,24.23
2022-10-17T10:42:51.533Z,24.26
2022-10-17T10:44:00.391Z,24.26
2022-10-17T10:44:52.484Z,24.23
2022-10-17T10:45:47.928Z,24.27
2022-10-17T10:46:40.944Z,24.27
2022-10-17T10:47:27.295Z,24.30
2022-10-17T10:48:27.221Z,24.24
2022-10-17T10:49:25.332Z,24.27
2022-10-17T10:50:31.447Z,24.19
2022-10-17T10:51:27.215Z,24.18
2022-10-17T10:52:17.625Z,24.21
2022-10-17T10:52:58.672Z,24.24
2022-10-17T10:53:51.611Z,24.28
2022-10-17T10:54:43.910Z,24.29
2022-10-17T10:55:38.056Z,24.27
2022-10-17T10:56:33.023Z,24.28
2022-10-17T10:57:21.173Z,24.30
2022-10-17T10:58:10.178Z,24.30
2022-10-17T10:59:06.060Z,24.30
2022-10-17T11:00:10.626Z,24.30
2022-10-17T11:01:00.693Z,24.25
2022-10-17T11:01:53.368Z,24.25
2022-10-17T11:02:48.308Z,24.27
2022-10-17T11:03:53.317Z,24.24
2022-10-17T11:04:48.125Z,24.20
2022-10-17T11:05:43.906Z,24.18
2022-10-17T11:06:33.264Z,24.23
2022-10-17T11:07:21.573Z,24.23
2022-10-17T11:08:12.831Z,24.25
2022-10-17T11:09:00.261Z,24.28
2022-10-17T11:09:58.891Z,24.28
2022-10-17T11:10:53.466Z,24.31
2022-10-17T11:11:45.956Z,24.30
2022-10-17T11:12:33.998Z,24.29
2022-10-17T11:13:18.743Z,24.28
2022-10-17T11:14:21.119Z,24.30
2022-10-17T11:15:12.787Z,24.29
2022-10-17T11:16:01.919Z,24.30
2022-10-17T11:16:58.765Z,24.27
2022-10-17T11:17:51.692Z,24.30
2022-10-17T11:18:44.471Z,24.28
2022-10-17T11:19:55.315Z,24.31
2022-10-17T11:20:51.550Z,24.21
2022-10-17T11:21:48.661Z,24.28
2022-10-17T11:22:40.773Z,24.30
2022-10-17T11:23:33.266Z,24.31
2022-10-17T11:24:15.866Z,24.27
2022-10-17T11:25:04.503Z,24.28
2022-10-17T11:25:53.936Z,24.21
2022-10-17T11:26:45.014Z,24.22
2022-10-17T11:27:35.210Z,24.21
2022-10-17T11:28:22.714Z,24.27